Airfield :
LOGIN :

Register | Disclaimer

   EN    FR    IT 

 










Legend :    VFR   Marginal VFR   IFR   Intensive IFR   Very Intensive IFR
Visi :
Ceiling :
>= 8 km
>= 3000ft
5 to 8 km
1000 to 3000 ft
1500m to 5 km
500 to 1000 ft
800 to 1500m
200 to 500 ft
< 800m
< 200 ft
Symbols :   Thunderstorms  Fog  Heavy snow  Heavy precipitations  Wind > 20 kt
SIGMETs :     Misc.  Thunderstorms  Icing  Turbulence  Mountain Waves  Volcanic Ashes






- Airport Elevation : 65 ft
- IATA code : PIK


EGPK - Glasgow Prestwick

CURRENT METAR :
  • 240620Z 08011KT 9999 -RA FEW012 BKN020 02/01 Q1005

EXPIRED METARs :
  • 240550Z 07007KT 9999 -RA FEW012 BKN020 02/01 Q1006
  • 240450Z 09008KT 9999 -RA SCT014 SCT024 02/01 Q1008
  • 240350Z 14008KT 9999 -RA FEW018 SCT032 04/01 Q1011

TAF TAF EGPK
Valid from the 24 at 06:00 until the 25 at 06:00 UTC


240456Z 2406/2506 10009KT 9999 BKN025
TEMPO 2406/2416 5000 RA -RASN BKN010
PROB40
TEMPO 2406/2412 3000 RADZ RASN BKN004
BECMG 2413/2416 27012KT
PROB30
TEMPO 2416/2421 7000 SHRA BKN010
TEMPO 2417/2506 27015G25KT
TEMPO 2421/2506 4000 +SHRA BKN010CB



MET'MAP, your aeronautical weather chart ! - Copyright ORBIFLY December 2007 - Disclaimer

ORBIFLY MET'MAP TEAM :

Programming & Development : Alexandra Zaïnal
Concept & original design : Baudouin d'Aumeries
Assistance for programming : Marc-Olivier Méhu
Technical & hardware support : Manuel Goepfert

Contact : metmap@orbifly.com




SOURCES & CREDITS :

   NOAA